createdAt,value
2022-12-04T00:00:53.325Z,96237.22
2022-12-04T00:03:19.600Z,96238.63
2022-12-04T00:05:45.945Z,96237.38
2022-12-04T00:08:12.348Z,96245.66
2022-12-04T00:10:38.706Z,96250.28
2022-12-04T00:13:04.965Z,96250.88
2022-12-04T00:15:31.237Z,96244.19
2022-12-04T00:17:57.515Z,96247.88
2022-12-04T00:20:23.774Z,96249.47
2022-12-04T00:22:50.058Z,96255.00
2022-12-04T00:25:16.303Z,96245.66
2022-12-04T00:27:42.585Z,96241.75
2022-12-04T00:30:08.855Z,96228.53
2022-12-04T00:32:35.106Z,96228.75
2022-12-04T00:35:01.357Z,96225.41
2022-12-04T00:37:27.668Z,96219.53
2022-12-04T00:39:54.200Z,96223.59
2022-12-04T00:42:20.677Z,96219.69
2022-12-04T00:44:46.960Z,96244.22
2022-12-04T00:47:13.206Z,96243.66
2022-12-04T00:49:39.484Z,96238.22
2022-12-04T00:52:05.762Z,96232.78
2022-12-04T00:54:32.106Z,96238.88
2022-12-04T00:56:58.366Z,96231.16
2022-12-04T00:59:24.632Z,96247.28
2022-12-04T01:01:50.890Z,96235.88
2022-12-04T01:04:17.150Z,96228.75
2022-12-04T01:06:43.403Z,96224.63
2022-12-04T01:09:09.700Z,96214.25
2022-12-04T01:11:35.993Z,96217.47
2022-12-04T01:14:02.256Z,96222.09
2022-12-04T01:16:28.555Z,96221.06
2022-12-04T01:18:54.874Z,96214.97
2022-12-04T01:21:21.148Z,96210.25
2022-12-04T01:23:47.401Z,96225.78
2022-12-04T01:26:13.658Z,96220.34
2022-12-04T01:28:39.901Z,96233.47
2022-12-04T01:31:06.164Z,96228.16
2022-12-04T01:33:32.418Z,96233.09
2022-12-04T01:35:58.693Z,96235.88
2022-12-04T01:38:24.945Z,96228.75
2022-12-04T01:40:51.221Z,96231.97
2022-12-04T01:43:17.503Z,96223.59
2022-12-04T01:45:43.903Z,96226.81
2022-12-04T01:48:10.189Z,96220.13
2022-12-04T01:50:36.459Z,96218.28
2022-12-04T01:53:02.725Z,96217.78
2022-12-04T01:55:29.127Z,96214.34
2022-12-04T01:57:55.391Z,96215.59
2022-12-04T02:00:21.652Z,96219.78
2022-12-04T02:02:47.985Z,96217.94
2022-12-04T02:05:14.308Z,96212.84
2022-12-04T02:07:40.611Z,96215.50
2022-12-04T02:10:06.948Z,96209.75
2022-12-04T02:12:33.212Z,96212.84
2022-12-04T02:14:59.468Z,96211.81
2022-12-04T02:17:25.750Z,96211.00
2022-12-04T02:19:52.111Z,96211.91
2022-12-04T02:22:18.512Z,96202.56
2022-12-04T02:24:49.762Z,96202.47
2022-12-04T02:27:16.510Z,96210.66
2022-12-04T02:29:42.761Z,96217.56
2022-12-04T02:32:09.016Z,96206.47
2022-12-04T02:34:35.278Z,96211.91
2022-12-04T02:37:01.548Z,96209.50
2022-12-04T02:39:27.821Z,96201.78
2022-12-04T02:41:54.102Z,96196.13
2022-12-04T02:44:20.350Z,96197.16
2022-12-04T02:46:46.598Z,96201.41
2022-12-04T02:49:12.859Z,96209.50
2022-12-04T02:51:39.118Z,96205.34
2022-12-04T02:54:05.377Z,96210.53
2022-12-04T02:56:31.656Z,96209.63
2022-12-04T02:58:57.943Z,96216.09
2022-12-04T03:01:24.294Z,96213.00
2022-12-04T03:03:50.597Z,96226.59
2022-12-04T03:06:16.874Z,96223.63
2022-12-04T03:08:43.118Z,96225.00
2022-12-04T03:11:09.380Z,96225.34
2022-12-04T03:13:35.653Z,96226.63
2022-12-04T03:16:01.926Z,96226.19
2022-12-04T03:18:28.208Z,96224.13
2022-12-04T03:20:54.479Z,96225.50
2022-12-04T03:23:20.765Z,96225.59
2022-12-04T03:25:47.048Z,96225.25
2022-12-04T03:28:13.305Z,96237.22
2022-12-04T03:30:39.666Z,96240.47
2022-12-04T03:33:05.947Z,96237.31
2022-12-04T03:35:32.236Z,96229.38
2022-12-04T03:37:58.483Z,96239.03
2022-12-04T03:40:24.761Z,96230.41
2022-12-04T03:42:51.033Z,96233.84
2022-12-04T03:45:17.317Z,96232.69
2022-12-04T03:47:43.605Z,96235.78
2022-12-04T03:50:09.890Z,96232.34
2022-12-04T03:52:36.160Z,96229.91
2022-12-04T03:55:02.439Z,96235.97
2022-12-04T03:57:28.686Z,96234.34
2022-12-04T03:59:56.084Z,96229.66
2022-12-04T04:02:22.724Z,96227.34
2022-12-04T04:04:49.115Z,96233.59
2022-12-04T04:07:15.394Z,96233.22
2022-12-04T04:09:41.650Z,96226.69
2022-12-04T04:12:07.918Z,96223.81
2022-12-04T04:14:34.203Z,96226.22
2022-12-04T04:17:00.457Z,96229.81
2022-12-04T04:19:26.813Z,96229.38
2022-12-04T04:21:53.066Z,96214.06
2022-12-04T04:24:19.336Z,96214.63
2022-12-04T04:26:45.605Z,96217.88
2022-12-04T04:29:11.850Z,96231.22
2022-12-04T04:31:38.189Z,96231.56
2022-12-04T04:34:04.502Z,96217.16
2022-12-04T04:36:30.792Z,96219.94
2022-12-04T04:38:57.037Z,96230.31
2022-12-04T04:41:23.310Z,96224.56
2022-12-04T04:43:49.599Z,96223.16
2022-12-04T04:46:16.012Z,96230.09
2022-12-04T04:48:42.314Z,96239.75
2022-12-04T04:51:08.590Z,96244.91
2022-12-04T04:53:34.845Z,96235.78
2022-12-04T04:56:01.114Z,96239.47
2022-12-04T04:58:27.369Z,96246.97
2022-12-04T05:00:53.649Z,96250.06
2022-12-04T05:03:20.001Z,96245.94
2022-12-04T05:05:46.397Z,96246.53
2022-12-04T05:08:12.679Z,96256.09
2022-12-04T05:10:38.974Z,96258.28
2022-12-04T05:13:05.253Z,96253.78
2022-12-04T05:15:31.508Z,96246.28
2022-12-04T05:17:57.759Z,96258.28
2022-12-04T05:20:24.018Z,96259.91
2022-12-04T05:22:50.285Z,96258.06
2022-12-04T05:25:16.562Z,96256.22
2022-12-04T05:27:42.825Z,96258.06
2022-12-04T05:30:09.085Z,96261.97
2022-12-04T05:32:35.341Z,96265.44
2022-12-04T05:35:05.125Z,96253.06
2022-12-04T05:37:34.042Z,96259.19
2022-12-04T05:40:00.311Z,96264.25
2022-12-04T05:42:26.569Z,96257.13
2022-12-04T05:44:52.886Z,96260.72
2022-12-04T05:47:19.145Z,96254.81
2022-12-04T05:49:45.417Z,96253.00
2022-12-04T05:52:11.692Z,96251.94
2022-12-04T05:54:37.945Z,96250.34
2022-12-04T05:57:04.214Z,96250.56
2022-12-04T05:59:30.475Z,96248.00
2022-12-04T06:01:56.807Z,96252.28
2022-12-04T06:04:23.117Z,96258.59
2022-12-04T06:06:49.389Z,96254.25
2022-12-04T06:09:15.655Z,96245.50
2022-12-04T06:11:41.920Z,96252.63
2022-12-04T06:14:08.192Z,96255.28
2022-12-04T06:16:34.620Z,96250.44
2022-12-04T06:19:00.971Z,96250.66
2022-12-04T06:21:27.237Z,96236.38
2022-12-04T06:23:53.499Z,96254.56
2022-12-04T06:26:19.798Z,96249.97
2022-12-04T06:28:46.062Z,96241.81
2022-12-04T06:31:12.341Z,96253.34
2022-12-04T06:33:38.622Z,96240.31
2022-12-04T06:36:04.902Z,96251.28
2022-12-04T06:38:31.158Z,96247.16
2022-12-04T06:40:57.429Z,96249.78
2022-12-04T06:43:23.698Z,96249.56
2022-12-04T06:45:50.065Z,96242.44
2022-12-04T06:48:16.382Z,96244.50
2022-12-04T06:50:42.621Z,96240.00
2022-12-04T06:53:08.887Z,96238.97
2022-12-04T06:55:35.174Z,96229.19
2022-12-04T06:58:01.434Z,96224.56
2022-12-04T07:00:27.714Z,96225.59
2022-12-04T07:02:54.109Z,96232.38
2022-12-04T07:05:20.439Z,96234.22
2022-12-04T07:07:46.739Z,96233.19
2022-12-04T07:10:13.020Z,96235.03
2022-12-04T07:12:39.472Z,96238.03
2022-12-04T07:15:05.762Z,96231.94
2022-12-04T07:17:32.015Z,96236.50
2022-12-04T07:19:58.463Z,96245.25
2022-12-04T07:22:24.853Z,96251.94
2022-12-04T07:24:51.114Z,96253.00
2022-12-04T07:27:17.369Z,96251.94
2022-12-04T07:29:43.637Z,96254.03
2022-12-04T07:32:09.933Z,96254.03
2022-12-04T07:34:36.224Z,96258.16
2022-12-04T07:37:02.493Z,96258.00
2022-12-04T07:39:28.774Z,96268.03
2022-12-04T07:41:55.079Z,96260.47
2022-12-04T07:44:21.335Z,96261.00
2022-12-04T07:46:47.619Z,96262.16
2022-12-04T07:49:13.891Z,96277.03
2022-12-04T07:51:40.156Z,96271.94
2022-12-04T07:54:06.420Z,96278.41
2022-12-04T07:56:32.680Z,96275.78
2022-12-04T07:58:58.928Z,96275.91
2022-12-04T08:01:25.313Z,96276.94
2022-12-04T08:03:51.675Z,96265.53
2022-12-04T08:06:17.953Z,96266.72
2022-12-04T08:08:44.212Z,96269.38
2022-12-04T08:11:10.472Z,96273.03
2022-12-04T08:13:36.743Z,96271.88
2022-12-04T08:16:03.008Z,96266.13
2022-12-04T08:18:29.265Z,96280.31
2022-12-04T08:20:55.537Z,96275.97
2022-12-04T08:23:21.826Z,96273.47
2022-12-04T08:25:48.111Z,96270.72
2022-12-04T08:28:14.354Z,96263.13
2022-12-04T08:30:40.669Z,96269.59
2022-12-04T08:33:06.959Z,96262.81
2022-12-04T08:35:33.243Z,96268.13
2022-12-04T08:37:59.519Z,96269.28
2022-12-04T08:40:25.785Z,96262.94
2022-12-04T08:42:52.044Z,96269.72
2022-12-04T08:45:18.321Z,96268.59
2022-12-04T08:47:47.980Z,96274.72
2022-12-04T08:50:18.433Z,96273.47
2022-12-04T08:52:44.694Z,96280.25
2022-12-04T08:55:10.975Z,96282.56
2022-12-04T08:57:37.270Z,96278.41
2022-12-04T09:00:03.544Z,96281.06
2022-12-04T09:02:29.828Z,96285.09
2022-12-04T09:04:57.209Z,96288.91
2022-12-04T09:07:23.552Z,96287.16
2022-12-04T09:09:49.806Z,96282.81
2022-12-04T09:12:16.078Z,96289.22
2022-12-04T09:14:42.347Z,96288.34
2022-12-04T09:17:08.627Z,96286.63
2022-12-04T09:19:34.874Z,96297.47
2022-12-04T09:22:01.150Z,96291.00
2022-12-04T09:24:27.407Z,96294.59
2022-12-04T09:26:53.742Z,96294.03
2022-12-04T09:29:20.100Z,96298.28
2022-12-04T09:31:46.409Z,96302.44
2022-12-04T09:34:12.757Z,96297.72
2022-12-04T09:36:39.024Z,96290.81
2022-12-04T09:39:05.275Z,96294.41
2022-12-04T09:41:31.550Z,96297.53
2022-12-04T09:43:57.881Z,96286.34
2022-12-04T09:46:24.322Z,96286.34
2022-12-04T09:48:50.616Z,96286.00
2022-12-04T09:51:16.899Z,96286.72
2022-12-04T09:53:43.159Z,96287.75
2022-12-04T09:56:09.409Z,96286.94
2022-12-04T09:58:35.668Z,96286.25
2022-12-04T10:01:01.922Z,96277.81
2022-12-04T10:03:28.393Z,96281.63
2022-12-04T10:05:54.725Z,96277.47
2022-12-04T10:08:21.068Z,96272.19
2022-12-04T10:10:47.426Z,96273.09
2022-12-04T10:13:13.683Z,96265.81
2022-12-04T10:15:40.028Z,96267.19
2022-12-04T10:18:06.337Z,96274.00
2022-12-04T10:20:32.602Z,96266.97
2022-12-04T10:22:58.870Z,96267.31
2022-12-04T10:25:25.129Z,96273.19
2022-12-04T10:27:51.400Z,96262.81
2022-12-04T10:30:17.667Z,96264.88
2022-12-04T10:32:43.913Z,96270.78
2022-12-04T10:35:10.198Z,96265.22
2022-12-04T10:37:36.452Z,96270.06
2022-12-04T10:40:02.703Z,96266.38
2022-12-04T10:42:29.001Z,96262.22
2022-12-04T10:44:55.261Z,96257.72
2022-12-04T10:47:21.528Z,96257.72
2022-12-04T10:49:47.797Z,96255.53
2022-12-04T10:52:14.063Z,96261.53
2022-12-04T10:54:40.357Z,96256.81
2022-12-04T10:57:06.613Z,96257.72
2022-12-04T10:59:32.871Z,96257.47
2022-12-04T11:02:03.112Z,96267.63
2022-12-04T11:04:32.743Z,96261.84
2022-12-04T11:06:59.024Z,96268.78
2022-12-04T11:09:25.296Z,96259.91
2022-12-04T11:11:51.666Z,96269.63
2022-12-04T11:14:17.962Z,96261.78
2022-12-04T11:16:44.263Z,96266.41
2022-12-04T11:19:10.545Z,96264.91
2022-12-04T11:21:36.854Z,96271.25
2022-12-04T11:24:03.102Z,96273.78
2022-12-04T11:26:29.398Z,96264.44
2022-12-04T11:28:55.698Z,96262.94
2022-12-04T11:31:22.009Z,96264.78
2022-12-04T11:33:48.485Z,96268.81
2022-12-04T11:36:14.867Z,96259.69
2022-12-04T11:38:41.207Z,96258.44
2022-12-04T11:41:07.644Z,96251.88
2022-12-04T11:43:33.982Z,96260.53
2022-12-04T11:46:00.319Z,96264.66
2022-12-04T11:48:26.719Z,96257.50
2022-12-04T11:50:53.435Z,96265.59
2022-12-04T11:53:19.762Z,96273.56
2022-12-04T11:55:46.073Z,96271.94
2022-12-04T11:58:12.453Z,96275.88
2022-12-04T12:00:38.782Z,96269.88
2022-12-04T12:03:05.199Z,96259.03
2022-12-04T12:05:31.623Z,96268.84
2022-12-04T12:08:02.453Z,96248.88
2022-12-04T12:10:29.360Z,96251.97
2022-12-04T12:12:55.620Z,96256.38
2022-12-04T12:15:21.866Z,96254.28
2022-12-04T12:17:48.138Z,96248.06
2022-12-04T12:20:14.426Z,96240.31
2022-12-04T12:22:40.692Z,96238.72
2022-12-04T12:25:06.970Z,96242.63
2022-12-04T12:27:33.225Z,96233.72
2022-12-04T12:29:59.612Z,96225.66
2022-12-04T12:32:25.870Z,96222.06
2022-12-04T12:34:52.152Z,96220.41
2022-12-04T12:37:18.416Z,96218.47
2022-12-04T12:39:44.749Z,96207.22
2022-12-04T12:42:11.022Z,96203.28
2022-12-04T12:44:37.299Z,96200.81
2022-12-04T12:47:03.570Z,96201.50
2022-12-04T12:49:29.833Z,96201.25
2022-12-04T12:51:56.164Z,96189.50
2022-12-04T12:54:22.423Z,96182.75
2022-12-04T12:56:49.939Z,96189.19
2022-12-04T12:59:16.373Z,96189.59
2022-12-04T13:01:42.677Z,96187.03
2022-12-04T13:04:09.019Z,96184.69
2022-12-04T13:06:35.348Z,96177.44
2022-12-04T13:09:01.607Z,96182.34
2022-12-04T13:11:27.904Z,96176.06
2022-12-04T13:13:54.316Z,96174.78
2022-12-04T13:16:20.589Z,96157.78
2022-12-04T13:18:46.865Z,96156.25
2022-12-04T13:21:13.129Z,96155.44
2022-12-04T13:23:39.437Z,96158.91
2022-12-04T13:26:05.731Z,96169.22
2022-12-04T13:28:32.007Z,96166.50
2022-12-04T13:30:58.292Z,96156.09
2022-12-04T13:33:24.550Z,96156.91
2022-12-04T13:35:50.813Z,96151.34
2022-12-04T13:38:17.095Z,96159.22
2022-12-04T13:40:43.354Z,96158.44
2022-12-04T13:43:09.642Z,96151.34
2022-12-04T13:45:35.955Z,96150.94
2022-12-04T13:48:02.262Z,96148.34
2022-12-04T13:50:28.518Z,96152.28
2022-12-04T13:52:54.762Z,96165.56
2022-12-04T13:55:21.025Z,96185.13
2022-12-04T13:57:47.354Z,96187.69
2022-12-04T14:00:13.629Z,96178.19
2022-12-04T14:02:39.932Z,96186.78
2022-12-04T14:05:06.230Z,96186.19
2022-12-04T14:07:32.577Z,96182.16
2022-12-04T14:09:58.886Z,96178.97
2022-12-04T14:12:25.143Z,96179.44
2022-12-04T14:14:51.401Z,96170.91
2022-12-04T14:17:17.718Z,96177.72
2022-12-04T14:19:44.009Z,96171.50
2022-12-04T14:22:10.259Z,96175.44
2022-12-04T14:24:36.531Z,96172.31
2022-12-04T14:27:11.608Z,96166.06
2022-12-04T14:29:38.425Z,96172.75
2022-12-04T14:32:04.678Z,96157.63
2022-12-04T14:34:30.954Z,96152.31
2022-12-04T14:36:57.213Z,96151.59
2022-12-04T14:39:23.472Z,96152.75
2022-12-04T14:41:49.734Z,96154.81
2022-12-04T14:44:16.013Z,96157.25
2022-12-04T14:46:42.350Z,96173.50
2022-12-04T14:49:08.693Z,96168.25
2022-12-04T14:51:34.973Z,96174.22
2022-12-04T14:54:01.232Z,96178.38
2022-12-04T14:56:27.549Z,96178.63
2022-12-04T14:58:53.806Z,96174.13
2022-12-04T15:01:25.299Z,96185.88
2022-12-04T15:03:54.822Z,96178.72
2022-12-04T15:06:21.102Z,96187.50
2022-12-04T15:08:47.343Z,96185.66
2022-12-04T15:11:13.594Z,96179.06
2022-12-04T15:13:39.871Z,96192.56
2022-12-04T15:16:06.228Z,96194.09
2022-12-04T15:18:38.080Z,96189.69
2022-12-04T15:21:05.741Z,96185.41
2022-12-04T15:23:32.032Z,96198.47
2022-12-04T15:25:58.318Z,96190.72
2022-12-04T15:28:24.611Z,96198.78
2022-12-04T15:30:51.025Z,96199.41
2022-12-04T15:33:21.161Z,96207.97
2022-12-04T15:35:48.143Z,96213.75
2022-12-04T15:38:14.439Z,96228.88
2022-12-04T15:40:40.697Z,96225.06
2022-12-04T15:43:06.941Z,96230.38
2022-12-04T15:45:33.228Z,96229.44
2022-12-04T15:47:59.482Z,96228.06
2022-12-04T15:50:25.745Z,96239.50
2022-12-04T15:52:52.083Z,96242.38
2022-12-04T15:55:18.338Z,96250.00
2022-12-04T15:57:44.667Z,96248.84
2022-12-04T16:00:10.959Z,96259.47
2022-12-04T16:02:37.286Z,96256.56
2022-12-04T16:05:03.537Z,96249.19
2022-12-04T16:07:29.868Z,96255.28
2022-12-04T16:10:02.616Z,96256.91
2022-12-04T16:12:29.825Z,96252.97
2022-12-04T16:14:56.330Z,96244.44
2022-12-04T16:17:22.738Z,96239.69
2022-12-04T16:19:48.989Z,96252.50
2022-12-04T16:22:17.345Z,96251.47
2022-12-04T16:24:46.490Z,96253.31
2022-12-04T16:27:12.818Z,96245.00
2022-12-04T16:29:39.075Z,96240.03
2022-12-04T16:32:05.470Z,96239.56
2022-12-04T16:34:31.814Z,96239.91
2022-12-04T16:36:58.108Z,96247.16
2022-12-04T16:39:24.357Z,96240.47
2022-12-04T16:41:50.634Z,96244.03
2022-12-04T16:44:16.928Z,96244.03
2022-12-04T16:46:43.307Z,96266.34
2022-12-04T16:49:09.654Z,96279.50
2022-12-04T16:51:35.907Z,96276.19
2022-12-04T16:54:02.163Z,96275.16
2022-12-04T16:56:28.414Z,96292.00
2022-12-04T16:58:54.679Z,96302.97
2022-12-04T17:01:20.980Z,96305.63
2022-12-04T17:03:47.314Z,96319.47
2022-12-04T17:06:13.626Z,96323.06
2022-12-04T17:08:39.904Z,96313.94
2022-12-04T17:11:06.244Z,96329.50
2022-12-04T17:13:32.503Z,96342.53
2022-12-04T17:15:58.804Z,96337.44
2022-12-04T17:18:25.092Z,96345.97
2022-12-04T17:20:51.364Z,96349.84
2022-12-04T17:23:17.648Z,96353.31
2022-12-04T17:25:43.898Z,96354.50
2022-12-04T17:28:10.161Z,96364.41
2022-12-04T17:30:36.777Z,96363.38
2022-12-04T17:33:03.078Z,96366.50
2022-12-04T17:35:29.364Z,96370.53
2022-12-04T17:37:57.429Z,96378.72
2022-12-04T17:40:26.975Z,96382.28
2022-12-04T17:42:53.238Z,96374.31
2022-12-04T17:45:19.527Z,96373.28
2022-12-04T17:47:45.798Z,96378.34
2022-12-04T17:50:12.051Z,96361.53
2022-12-04T17:52:38.339Z,96376.91
2022-12-04T17:55:04.606Z,96366.19
2022-12-04T17:57:30.866Z,96364.81
2022-12-04T17:59:57.132Z,96351.88
2022-12-04T18:02:23.436Z,96359.38
2022-12-04T18:04:49.730Z,96366.31
2022-12-04T18:07:15.995Z,96373.25
2022-12-04T18:09:42.309Z,96383.53
2022-12-04T18:12:08.565Z,96378.09
2022-12-04T18:14:34.845Z,96375.81
2022-12-04T18:17:01.174Z,96373.84
2022-12-04T18:19:27.493Z,96357.69
2022-12-04T18:21:53.758Z,96350.06
2022-12-04T18:24:20.025Z,96338.75
2022-12-04T18:26:46.298Z,96330.69
2022-12-04T18:29:12.593Z,96336.34
2022-12-04T18:31:38.953Z,96348.81
2022-12-04T18:34:05.313Z,96357.22
2022-12-04T18:36:31.585Z,96378.72
2022-12-04T18:38:57.866Z,96400.97
2022-12-04T18:41:24.138Z,96403.53
2022-12-04T18:43:50.421Z,96391.06
2022-12-04T18:46:16.774Z,96409.97
2022-12-04T18:48:43.083Z,96410.31
2022-12-04T18:51:09.341Z,96410.69
2022-12-04T18:53:35.598Z,96410.09
2022-12-04T18:56:01.860Z,96405.25
2022-12-04T18:58:28.173Z,96390.59
2022-12-04T19:00:54.474Z,96405.03
2022-12-04T19:03:20.775Z,96415.88
2022-12-04T19:05:47.193Z,96416.34
2022-12-04T19:08:13.594Z,96416.56
2022-12-04T19:10:39.899Z,96423.63
2022-12-04T19:13:06.169Z,96414.84
2022-12-04T19:15:32.437Z,96411.16
2022-12-04T19:17:58.685Z,96420.75
2022-12-04T19:20:24.974Z,96430.31
2022-12-04T19:22:51.245Z,96445.44
2022-12-04T19:25:17.530Z,96450.75
2022-12-04T19:27:43.808Z,96463.22
2022-12-04T19:30:10.081Z,96470.50
2022-12-04T19:32:36.359Z,96484.59
2022-12-04T19:35:02.613Z,96476.06
2022-12-04T19:37:28.886Z,96467.28
2022-12-04T19:39:55.615Z,96476.06
2022-12-04T19:42:22.054Z,96469.69
2022-12-04T19:44:49.584Z,96481.00
2022-12-04T19:47:16.222Z,96479.97
2022-12-04T19:49:42.497Z,96482.88
2022-12-04T19:52:08.757Z,96486.31
2022-12-04T19:54:35.011Z,96484.13
2022-12-04T19:57:01.254Z,96486.56
2022-12-04T19:59:30.578Z,96481.38
2022-12-04T20:02:00.975Z,96476.50
2022-12-04T20:04:27.327Z,96470.50
2022-12-04T20:06:53.612Z,96483.06
2022-12-04T20:09:19.908Z,96472.41
2022-12-04T20:11:46.206Z,96476.94
2022-12-04T20:14:12.459Z,96473.78
2022-12-04T20:16:38.860Z,96482.34
2022-12-04T20:19:05.229Z,96481.19
2022-12-04T20:21:31.489Z,96478.53
2022-12-04T20:23:57.737Z,96472.19
2022-12-04T20:26:24.013Z,96478.38
2022-12-04T20:28:50.290Z,96480.81
2022-12-04T20:31:16.576Z,96497.91
2022-12-04T20:33:42.878Z,96507.72
2022-12-04T20:36:09.130Z,96513.25
2022-12-04T20:38:35.397Z,96510.22
2022-12-04T20:41:01.660Z,96510.94
2022-12-04T20:43:27.923Z,96516.63
2022-12-04T20:45:54.252Z,96533.22
2022-12-04T20:48:20.572Z,96557.06
2022-12-04T20:50:46.968Z,96571.88
2022-12-04T20:53:13.247Z,96574.34
2022-12-04T20:55:39.493Z,96576.31
2022-12-04T20:58:05.766Z,96580.50
2022-12-04T21:00:32.042Z,96587.31
2022-12-04T21:02:58.389Z,96587.31
2022-12-04T21:05:24.720Z,96591.94
2022-12-04T21:07:51.097Z,96603.81
2022-12-04T21:10:17.392Z,96613.31
2022-12-04T21:12:43.677Z,96624.44
2022-12-04T21:15:09.966Z,96629.09
2022-12-04T21:17:36.244Z,96625.41
2022-12-04T21:20:07.389Z,96629.59
2022-12-04T21:22:34.237Z,96635.19
2022-12-04T21:25:00.521Z,96648.69
2022-12-04T21:27:26.819Z,96643.22
2022-12-04T21:29:53.089Z,96637.56
2022-12-04T21:32:19.371Z,96648.91
2022-12-04T21:34:45.639Z,96629.09
2022-12-04T21:37:11.921Z,96620.69
2022-12-04T21:39:38.221Z,96616.78
2022-12-04T21:42:04.497Z,96615.53
2022-12-04T21:44:30.771Z,96609.78
2022-12-04T21:46:57.121Z,96606.31
2022-12-04T21:49:23.440Z,96609.19
2022-12-04T21:51:58.536Z,96608.75
2022-12-04T21:54:25.279Z,96606.44
2022-12-04T21:56:51.550Z,96598.47
2022-12-04T21:59:17.797Z,96599.59
2022-12-04T22:01:44.106Z,96605.78
2022-12-04T22:04:10.381Z,96598.00
2022-12-04T22:06:36.693Z,96608.22
2022-12-04T22:09:02.941Z,96606.25
2022-12-04T22:11:29.193Z,96616.63
2022-12-04T22:13:55.460Z,96619.19
2022-12-04T22:16:24.569Z,96624.28
2022-12-04T22:18:54.471Z,96627.34
2022-12-04T22:21:20.744Z,96626.09
2022-12-04T22:23:47.010Z,96635.16
2022-12-04T22:26:13.284Z,96644.63
2022-12-04T22:28:39.542Z,96641.19
2022-12-04T22:31:05.960Z,96643.38
2022-12-04T22:33:32.256Z,96657.22
2022-12-04T22:35:58.536Z,96652.94
2022-12-04T22:38:24.806Z,96657.38
2022-12-04T22:40:51.064Z,96655.31
2022-12-04T22:43:17.329Z,96659.75
2022-12-04T22:45:43.586Z,96670.94
2022-12-04T22:48:09.847Z,96673.16
2022-12-04T22:50:36.105Z,96673.75
2022-12-04T22:53:02.381Z,96669.66
2022-12-04T22:55:28.645Z,96677.16
2022-12-04T22:57:54.903Z,96671.94
2022-12-04T23:00:21.222Z,96671.13
2022-12-04T23:02:47.505Z,96669.88
2022-12-04T23:05:13.863Z,96666.56
2022-12-04T23:07:40.257Z,96663.09
2022-12-04T23:10:06.577Z,96654.91
2022-12-04T23:12:32.863Z,96650.44
2022-12-04T23:14:59.135Z,96653.09
2022-12-04T23:17:25.403Z,96660.22
2022-12-04T23:19:51.692Z,96679.16
2022-12-04T23:22:17.929Z,96669.16
2022-12-04T23:24:44.214Z,96648.31
2022-12-04T23:27:10.458Z,96648.69
2022-12-04T23:29:52.652Z,96655.38
2022-12-04T23:32:19.247Z,96658.63
2022-12-04T23:34:45.504Z,96657.81
2022-12-04T23:37:11.764Z,96655.16
2022-12-04T23:39:38.008Z,96659.66
2022-12-04T23:42:04.299Z,96656.19
2022-12-04T23:44:30.600Z,96664.53
2022-12-04T23:46:56.931Z,96663.94
2022-12-04T23:49:23.239Z,96658.63
2022-12-04T23:51:49.494Z,96664.59
2022-12-04T23:54:15.749Z,96668.66
2022-12-04T23:56:42.038Z,96680.06
2022-12-04T23:59:08.284Z,96676.22
